Skip to content.

Northland

  

Whangarei - WRI

Logged in to unit HSN12059 as: Guest
(Last data received Tue 20 Feb 2018 10:40:00 - 4 days ago)

All FWI Graphs Forecast Hourly FWI Daily FWI Download FWI Data

Hourly FWI Logs | Period From 10:40 19/02/2018 to 10:40 20/02/2018

Change the DoC% for the 24hr period starting 12:00pm 19/2/2018 to

If the date above is the current day, then all future logs will inherit this value until such time as it is changed again. If you wish to change historic values you can do so by going back to the day you want to alter (navigate via the graphs) and change the DoC% there (however this will only affect that day).

WindRainHourly FWIsDaily FWIsForestGrassScrub
DateTime (NZST)Temp (C)RH (%)Dir (deg)Speed (km/h)Hourly (mm)Daily (mm)FFMCISIHFWIFFMCDMCDCISIBUIFWIDSRROS (m/h)FFI (kW/m)FFDCDoC (%)ROS (m/h)GFI (kW/m)GFDCROS (m/h)SFI (kW/m)SFDC
20/02/2018 0900 25.4 77.6 350 18.6 0.0 81.2 3.3 3.5 51 10 M 0 0 0 L 734 7337 E
20/02/2018 0800 24.0 81.2 342 16.1 0.0 80.9 2.8 2.9 40 8 L 0 0 0 L 600 5998 E
20/02/2018 0700 22.6 87.1 346 9.1 0.0 80.8 2.0 1.7 23 5 L 0 0 0 L 367 3671 V
20/02/2018 0600 22.3 87.8 356 9.9 0.0 80.8 2.0 1.8 24 5 L 0 0 0 L 388 3885 V
20/02/2018 0500 22.4 89.1 347 11.2 0.0 80.8 2.2 2.0 27 5 L 0 0 0 L 423 4227 E
20/02/2018 0400 22.5 89.9 347 8.3 0.0 80.8 1.9 1.6 21 4 L 0 0 0 L 347 3472 V
20/02/2018 0300 22.4 90.4 346 11.6 0.0 80.8 2.2 2.1 28 6 L 0 0 0 L 440 4398 E
20/02/2018 0200 21.6 92.5 356 5.4 0.0 81.0 1.7 1.1 18 3 L 0 0 0 L 294 2938 V
20/02/2018 0100 21.8 92.0 8 5.8 0.0 81.3 1.8 1.4 19 4 L 0 0 0 L 320 3199 V
20/02/2018 0000 21.9 91.9 5 7.9 0.0 81.7 2.0 1.8 25 5 L 0 0 0 L 392 3921 V
19/02/2018 2300 22.4 90.4 334 3.7 0.0 82.2 1.8 1.3 19 4 L 0 0 0 L 319 3189 V
19/02/2018 2200 22.0 91.2 338 7.5 0.0 82.6 2.2 2.1 28 6 L 0 0 0 L 438 4378 E
19/02/2018 2100 22.3 89.2 344 7.0 0.0 83.1 2.3 2.3 30 6 L 0 0 0 L 469 4688 E
19/02/2018 2000 22.9 86.3 349 9.5 0.0 83.6 2.8 2.9 40 8 L 0 0 0 L 602 6015 E
19/02/2018 1900 24.2 80.6 348 13.2 0.0 84.0 3.6 3.9 57 11 M 0 0 0 L 815 8146 E
19/02/2018 1800 27.2 69.4 347 15.3 0.0 84.1 4.0 4.4 68 13 M 0 0 0 L 935 9352 E
19/02/2018 1700 28.8 65.3 339 18.2 0.0 83.9 4.5 5.0 80 16 M 0 0 0 L 1082 10822 E
19/02/2018 1600 29.3 55.6 324 24.0 0.0 83.4 5.7 6.3 111 22 M 0 0 0 L 1411 14110 E
19/02/2018 1500 29.1 65.8 336 17.0 0.0 82.3 3.5 3.7 55 11 M 0 0 0 L 779 7792 E
19/02/2018 1400 29.4 65.2 7 11.6 0.0 81.5 2.4 2.4 31 6 L 0 0 0 L 487 4865 E
19/02/2018 1300 29.6 67.0 358 11.6 0.0 80.6 2.2 2.0 27 5 L 0 0 0 L 426 4264 E
19/02/2018 1200 27.8 70.5 350 12.4 0.0 0.0 79.7 2.1 1.8 84.5 7.7 38.9 3.7 10.3 4.0 0.3 25 5 L 0 0 0 L 394 3939 V
19/02/2018 1100 26.0 77.9 86 7.9 0.0 78.8 1.5 0.8 11 1 L 0 0 0 L 257 2570 V
19/02/2018 1000 26.8 75.7 306 5.8 0.0 78.3 1.3 0.7 9 1 L 0 0 0 L 209 2092 V